createdAt,value
2018-09-05T00:00:36.892Z,16.3
2018-09-05T00:01:27.233Z,16.3
2018-09-05T00:02:17.015Z,16.3
2018-09-05T00:03:07.077Z,16.3
2018-09-05T00:03:57.158Z,16.3
2018-09-05T00:04:47.487Z,16.3
2018-09-05T00:05:36.994Z,16.3
2018-09-05T00:06:27.693Z,16.2
2018-09-05T00:07:17.466Z,16.2
2018-09-05T00:08:07.475Z,16.2
2018-09-05T00:08:58.109Z,16.2
2018-09-05T00:09:47.876Z,16.2
2018-09-05T00:10:38.044Z,16.2
2018-09-05T00:11:27.713Z,16.2
2018-09-05T00:12:17.502Z,16.1
2018-09-05T00:31:39.510Z,16.1
2018-09-05T00:32:29.886Z,16.1
2018-09-05T00:33:19.664Z,16.1
2018-09-05T00:34:09.432Z,16.1
2018-09-05T00:34:59.794Z,16.1
2018-09-05T00:35:49.588Z,16.1
2018-09-05T00:36:40.204Z,16.1
2018-09-05T00:37:29.978Z,16.2
2018-09-05T00:38:20.326Z,16.1
2018-09-05T00:39:10.092Z,16.1
2018-09-05T00:40:00.177Z,16.1
2018-09-05T00:40:50.240Z,16.1
2018-09-05T00:41:40.605Z,16.1
2018-09-05T00:42:30.634Z,16.1
2018-09-05T00:43:20.722Z,16
2018-09-05T00:44:10.492Z,15.9
2018-09-05T00:45:00.538Z,15.9
2018-09-05T00:45:50.614Z,15.9
2018-09-05T00:46:40.383Z,15.9
2018-09-05T00:47:31.029Z,15.9
2018-09-05T00:48:19.937Z,15.9
2018-09-05T00:49:10.861Z,15.9
2018-09-05T00:50:00.935Z,15.9
2018-09-05T00:50:51.274Z,15.9
2018-09-05T00:51:41.352Z,15.9
2018-09-05T00:52:31.116Z,15.9
2018-09-05T00:53:20.614Z,15.9
2018-09-05T00:54:11.252Z,15.9
2018-09-05T00:55:01.324Z,15.9
2018-09-05T00:55:51.654Z,15.9
2018-09-05T00:56:41.690Z,15.9
2018-09-05T00:57:31.497Z,15.9
2018-09-05T00:58:21.579Z,15.9
2018-09-05T00:59:11.951Z,15.9
2018-09-05T01:00:01.732Z,15.9
2018-09-05T01:00:51.779Z,15.9
2018-09-05T01:01:41.531Z,15.9
2018-09-05T01:02:31.919Z,15.9
2018-09-05T01:03:21.911Z,15.9
2018-09-05T01:04:11.979Z,15.9
2018-09-05T01:05:02.032Z,16
2018-09-05T01:05:52.141Z,15.9
2018-09-05T01:06:42.472Z,15.9
2018-09-05T01:07:32.524Z,16
2018-09-05T01:08:22.589Z,16
2018-09-05T01:09:12.682Z,16
2018-09-05T01:10:02.946Z,15.9
2018-09-05T01:10:52.778Z,15.9
2018-09-05T01:11:42.829Z,15.9
2018-09-05T01:12:32.279Z,15.9
2018-09-05T01:13:23.523Z,15.9
2018-09-05T01:14:12.468Z,15.9
2018-09-05T01:15:02.534Z,15.9
2018-09-05T01:15:52.864Z,15.9
2018-09-05T01:16:43.216Z,15.9
2018-09-05T01:17:32.713Z,15.9
2018-09-05T01:18:23.339Z,15.9
2018-09-05T01:19:13.415Z,15.9
2018-09-05T01:20:03.218Z,15.9
2018-09-05T01:20:53.534Z,15.9
2018-09-05T01:21:43.044Z,15.9
2018-09-05T01:22:33.650Z,15.8
2018-09-05T01:23:23.736Z,15.9
2018-09-05T01:24:13.820Z,15.8
2018-09-05T01:25:03.866Z,15.8
2018-09-05T01:25:53.946Z,15.8
2018-09-05T01:26:43.733Z,15.8
2018-09-05T01:27:35.039Z,15.8
2018-09-05T01:28:23.832Z,15.8
2018-09-05T01:29:14.422Z,15.8
2018-09-05T01:30:03.688Z,15.8
2018-09-05T01:30:54.020Z,15.8
2018-09-05T01:31:44.106Z,15.8
2018-09-05T01:32:34.696Z,15.8
2018-09-05T01:33:24.235Z,15.8
2018-09-05T01:34:14.550Z,15.8
2018-09-05T01:35:04.354Z,15.8
2018-09-05T01:35:54.727Z,15.8
2018-09-05T01:36:44.496Z,15.8
2018-09-05T01:37:35.127Z,15.7
2018-09-05T01:38:24.318Z,15.8
2018-09-05T01:39:15.203Z,15.8
2018-09-05T01:40:05.022Z,15.8
2018-09-05T01:40:55.087Z,15.8
2018-09-05T01:41:45.159Z,15.8
2018-09-05T01:42:34.965Z,15.8
2018-09-05T01:43:24.989Z,15.8
2018-09-05T01:44:15.337Z,15.8
2018-09-05T01:45:04.857Z,15.7
2018-09-05T01:45:55.185Z,15.7
2018-09-05T01:46:45.549Z,15.7
2018-09-05T01:47:35.591Z,15.7
2018-09-05T01:48:25.669Z,15.8
2018-09-05T01:49:15.441Z,15.8
2018-09-05T01:50:05.494Z,15.8
2018-09-05T01:50:55.334Z,15.8
2018-09-05T01:51:45.932Z,15.9
2018-09-05T01:52:35.744Z,15.8
2018-09-05T01:53:25.797Z,15.8
2018-09-05T01:54:16.365Z,15.8
2018-09-05T01:55:05.913Z,15.8
2018-09-05T01:55:56.239Z,15.8
2018-09-05T01:56:46.036Z,15.8
2018-09-05T01:57:36.100Z,15.8
2018-09-05T01:58:26.148Z,15.8
2018-09-05T01:59:16.496Z,15.8
2018-09-05T02:00:06.274Z,15.7
2018-09-05T02:00:56.641Z,15.7
2018-09-05T02:01:46.740Z,15.7
2018-09-05T02:02:36.757Z,15.8
2018-09-05T02:03:26.544Z,15.8
2018-09-05T02:04:16.878Z,15.7
2018-09-05T02:05:06.985Z,15.7
2018-09-05T02:05:56.747Z,15.7
2018-09-05T02:06:46.532Z,15.7
2018-09-05T02:07:36.579Z,15.7
2018-09-05T02:08:27.860Z,15.7
2018-09-05T02:09:17.024Z,15.7
2018-09-05T02:10:07.103Z,15.6
2018-09-05T02:10:57.416Z,15.6
2018-09-05T02:11:47.193Z,15.8
2018-09-05T02:12:37.253Z,15.8
2018-09-05T02:13:27.590Z,15.8
2018-09-05T02:14:17.085Z,15.8
2018-09-05T02:15:07.455Z,15.8
2018-09-05T02:15:57.487Z,15.8
2018-09-05T02:16:47.596Z,15.7
2018-09-05T02:17:37.919Z,15.7
2018-09-05T02:18:27.449Z,15.6
2018-09-05T02:19:18.062Z,15.6
2018-09-05T02:20:08.105Z,15.6
2018-09-05T02:20:58.188Z,15.6
2018-09-05T02:21:48.025Z,15.6
2018-09-05T02:22:38.022Z,15.6
2018-09-05T02:23:28.369Z,15.6
2018-09-05T02:24:18.132Z,15.6
2018-09-05T02:25:08.767Z,15.6
2018-09-05T02:25:58.564Z,15.6
2018-09-05T02:26:48.648Z,15.5
2018-09-05T02:27:38.667Z,15.6
2018-09-05T02:28:28.754Z,15.6
2018-09-05T02:29:18.521Z,15.6
2018-09-05T02:30:08.892Z,15.6
2018-09-05T02:30:58.971Z,15.6
2018-09-05T02:31:48.459Z,15.6
2018-09-05T02:32:38.781Z,15.6
2018-09-05T02:33:29.168Z,15.6
2018-09-05T02:34:18.921Z,15.6
2018-09-05T02:35:08.981Z,15.6
2018-09-05T02:35:59.333Z,15.6
2018-09-05T02:36:49.651Z,15.6
2018-09-05T02:37:39.457Z,15.6
2018-09-05T02:38:29.253Z,15.6
2018-09-05T02:39:19.301Z,15.6
2018-09-05T02:40:09.642Z,15.6
2018-09-05T02:40:59.478Z,15.6
2018-09-05T02:41:50.085Z,15.6
2018-09-05T02:42:39.588Z,15.6
2018-09-05T02:43:29.740Z,15.5
2018-09-05T02:44:19.994Z,15.6
2018-09-05T02:45:09.998Z,15.6
2018-09-05T02:46:00.033Z,15.6
2018-09-05T02:46:50.432Z,15.6
2018-09-05T02:47:40.225Z,15.6
2018-09-05T02:48:30.286Z,15.5
2018-09-05T02:49:20.403Z,15.5
2018-09-05T02:50:10.445Z,15.6
2018-09-05T02:51:00.193Z,15.5
2018-09-05T02:51:50.299Z,15.5
2018-09-05T02:52:40.053Z,15.5
2018-09-05T02:53:30.400Z,15.5
2018-09-05T02:54:20.760Z,15.5
2018-09-05T02:55:10.537Z,15.4
2018-09-05T02:56:01.352Z,15.4
2018-09-05T02:56:50.647Z,15.4
2018-09-05T02:57:41.009Z,15.4
2018-09-05T02:58:30.555Z,15.4
2018-09-05T02:59:20.557Z,15.4
2018-09-05T03:00:10.945Z,15.4
2018-09-05T03:01:00.987Z,15.4
2018-09-05T03:01:50.748Z,15.4
2018-09-05T03:02:40.804Z,15.4
2018-09-05T03:03:31.450Z,15.4
2018-09-05T03:04:21.237Z,15.4
2018-09-05T03:05:11.581Z,15.4
2018-09-05T03:06:01.372Z,15.4
2018-09-05T03:06:51.508Z,15.4
2018-09-05T03:07:41.756Z,15.4
2018-09-05T03:08:31.548Z,15.3
2018-09-05T03:09:21.842Z,15.3
2018-09-05T03:10:11.408Z,15.3
2018-09-05T03:11:01.747Z,15.3
2018-09-05T03:11:51.851Z,15.3
2018-09-05T03:12:42.121Z,15.3
2018-09-05T03:13:32.233Z,15.3
2018-09-05T03:14:21.706Z,15.3
2018-09-05T03:15:12.358Z,15.3
2018-09-05T03:16:02.420Z,15.3
2018-09-05T03:16:52.163Z,15.3
2018-09-05T03:17:41.715Z,15.3
2018-09-05T03:18:32.341Z,15.2
2018-09-05T03:19:22.668Z,15.3
2018-09-05T03:20:12.463Z,15.3
2018-09-05T03:21:03.063Z,15.2
2018-09-05T03:21:52.601Z,15.2
2018-09-05T03:22:42.744Z,15.2
2018-09-05T03:23:32.828Z,15.2
2018-09-05T03:24:22.517Z,15.2
2018-09-05T03:25:13.522Z,15.2
2018-09-05T03:26:02.905Z,15.2
2018-09-05T03:26:53.272Z,15.2
2018-09-05T03:27:43.031Z,15.1
2018-09-05T03:28:33.381Z,15.2
2018-09-05T03:29:23.450Z,15.1
2018-09-05T03:30:13.800Z,15.2
2018-09-05T03:31:03.226Z,15.2
2018-09-05T03:31:53.677Z,15.2
2018-09-05T03:32:43.206Z,15.2
2018-09-05T03:33:33.518Z,15.2
2018-09-05T03:34:23.555Z,15.2
2018-09-05T03:35:13.893Z,15.2
2018-09-05T03:36:03.940Z,15.1
2018-09-05T03:36:53.747Z,15.1
2018-09-05T03:37:43.799Z,15.1
2018-09-05T03:38:33.857Z,15.1
2018-09-05T03:39:23.662Z,15.1
2018-09-05T03:40:14.002Z,15.1
2018-09-05T03:41:04.552Z,15.1
2018-09-05T03:41:54.133Z,15.1
2018-09-05T03:42:44.482Z,15.1
2018-09-05T03:43:34.526Z,15.1
2018-09-05T03:44:24.609Z,15.1
2018-09-05T03:45:14.103Z,15.1
2018-09-05T03:46:04.962Z,15.1
2018-09-05T03:46:55.139Z,15.1
2018-09-05T03:47:45.004Z,15.1
2018-09-05T03:48:35.200Z,15.1
2018-09-05T03:49:25.144Z,15.1
2018-09-05T03:50:15.196Z,15.1
2018-09-05T03:51:05.265Z,15.1
2018-09-05T03:51:54.914Z,15.1
2018-09-05T03:52:44.686Z,15.1
2018-09-05T03:53:35.317Z,15.1
2018-09-05T03:54:25.424Z,15.1
2018-09-05T03:55:15.479Z,15.1
2018-09-05T03:56:05.230Z,15.1
2018-09-05T03:56:55.885Z,15.1
2018-09-05T03:57:45.370Z,15.1
2018-09-05T03:58:35.708Z,15.1
2018-09-05T03:59:25.763Z,15.1
2018-09-05T04:00:15.828Z,15.1
2018-09-05T04:01:06.133Z,15.1
2018-09-05T04:01:55.985Z,15.1
2018-09-05T04:02:46.263Z,15.1
2018-09-05T04:03:36.076Z,15.1
2018-09-05T04:04:25.608Z,15.1
2018-09-05T04:05:16.256Z,15.1
2018-09-05T04:06:06.271Z,15.1
2018-09-05T04:06:56.326Z,15.1
2018-09-05T04:07:46.646Z,15.1
2018-09-05T04:08:36.479Z,15.1
2018-09-05T04:09:26.572Z,15.1
2018-09-05T04:10:16.333Z,15.1
2018-09-05T04:11:06.677Z,15.1
2018-09-05T04:11:56.495Z,15.1
2018-09-05T04:12:46.791Z,15.1
2018-09-05T04:13:36.854Z,15.1
2018-09-05T04:14:26.916Z,15.1
2018-09-05T04:15:16.690Z,15.1
2018-09-05T04:16:06.759Z,15.1
2018-09-05T04:16:57.399Z,15.1
2018-09-05T04:17:47.167Z,15.1
2018-09-05T04:18:36.996Z,15.1
2018-09-05T04:19:26.851Z,15.2
2018-09-05T04:20:17.466Z,15.1
2018-09-05T04:21:07.167Z,15.2
2018-09-05T04:21:58.110Z,15.1
2018-09-05T04:22:47.620Z,15.1
2018-09-05T04:23:37.402Z,15.1
2018-09-05T04:24:27.716Z,15.1
2018-09-05T04:25:17.220Z,15.2
2018-09-05T04:26:08.012Z,15.2
2018-09-05T04:26:58.035Z,15.2
2018-09-05T04:27:47.973Z,15.1
2018-09-05T04:28:37.748Z,15.1
2018-09-05T04:29:28.527Z,15.1
2018-09-05T04:30:18.439Z,15.1
2018-09-05T04:31:08.283Z,15.1
2018-09-05T04:31:58.573Z,15.1
2018-09-05T04:32:48.338Z,15.1
2018-09-05T04:33:38.175Z,15.1
2018-09-05T04:34:28.451Z,15.1
2018-09-05T04:35:18.533Z,15.2
2018-09-05T04:36:08.847Z,15.2
2018-09-05T04:36:58.654Z,15.3
2018-09-05T04:37:48.721Z,15.2
2018-09-05T04:38:38.729Z,15.2
2018-09-05T04:39:28.876Z,15.3
2018-09-05T04:40:18.622Z,15.2
2018-09-05T04:41:08.964Z,15.3
2018-09-05T04:41:58.783Z,15.3
2018-09-05T04:42:48.562Z,15.3
2018-09-05T05:00:29.499Z,15.3
2018-09-05T05:01:19.266Z,15.3
2018-09-05T05:02:09.123Z,15.3
2018-09-05T05:02:59.391Z,15.3
2018-09-05T05:03:49.146Z,15.3
2018-09-05T05:04:39.924Z,15.3
2018-09-05T05:05:29.887Z,15.3
2018-09-05T05:06:19.644Z,15.3
2018-09-05T05:07:09.693Z,15.3
2018-09-05T05:07:59.741Z,15.3
2018-09-05T05:08:49.816Z,15.3
2018-09-05T05:09:39.895Z,15.3
2018-09-05T05:10:29.978Z,15.3
2018-09-05T05:11:19.966Z,15.3
2018-09-05T05:12:09.762Z,15.3
2018-09-05T05:13:00.118Z,15.3
2018-09-05T05:13:50.393Z,15.3
2018-09-05T05:14:40.248Z,15.3
2018-09-05T05:15:30.312Z,15.3
2018-09-05T05:16:20.382Z,15.3
2018-09-05T05:17:10.202Z,15.3
2018-09-05T05:18:00.544Z,15.3
2018-09-05T05:18:50.299Z,15.3
2018-09-05T05:19:40.694Z,15.3
2018-09-05T05:20:30.769Z,15.3
2018-09-05T05:21:20.297Z,15.3
2018-09-05T05:22:10.829Z,15.4
2018-09-05T05:23:00.410Z,15.4
2018-09-05T05:23:51.060Z,15.5
2018-09-05T05:24:41.313Z,15.6
2018-09-05T05:25:31.091Z,15.6
2018-09-05T05:26:21.158Z,15.7
2018-09-05T05:27:11.213Z,15.7
2018-09-05T05:28:01.300Z,15.8
2018-09-05T05:28:51.348Z,15.9
2018-09-05T05:29:41.531Z,15.9
2018-09-05T05:30:31.503Z,16
2018-09-05T05:31:21.320Z,16.1
2018-09-05T05:32:11.345Z,16.2
2018-09-05T05:33:01.628Z,16.3
2018-09-05T05:33:51.788Z,16.3
2018-09-05T05:34:43.547Z,16.2
2018-09-05T05:35:32.211Z,16.3
2018-09-05T05:36:21.675Z,16.4
2018-09-05T05:37:11.782Z,16.4
2018-09-05T05:38:02.895Z,16.4
2018-09-05T05:38:52.589Z,16.4
2018-09-05T05:39:43.760Z,16.4
2018-09-05T05:40:32.274Z,16.3
2018-09-05T05:41:22.555Z,16.3
2018-09-05T05:42:12.371Z,16.3
2018-09-05T05:43:02.156Z,16.3
2018-09-05T05:43:52.256Z,16.3
2018-09-05T05:44:42.295Z,16.3
2018-09-05T05:45:32.154Z,16.3
2018-09-05T05:46:22.413Z,16.4
2018-09-05T05:47:12.760Z,16.5
2018-09-05T05:48:02.523Z,16.7
2018-09-05T05:48:52.598Z,16.6
2018-09-05T05:49:42.938Z,16.7
2018-09-05T05:50:33.064Z,16.7
2018-09-05T05:51:22.521Z,16.8
2018-09-05T05:52:13.143Z,16.8
2018-09-05T05:53:03.203Z,16.8
2018-09-05T05:53:53.281Z,16.8
2018-09-05T05:54:43.341Z,16.8
2018-09-05T05:55:32.554Z,16.9
2018-09-05T05:58:03.308Z,17.1
2018-09-05T05:58:53.371Z,17.1
2018-09-05T05:59:43.725Z,17.2
2018-09-05T06:00:33.790Z,17.3
2018-09-05T06:01:24.109Z,17.4
2018-09-05T06:02:13.926Z,17.4
2018-09-05T06:03:03.973Z,17.4
2018-09-05T06:03:53.778Z,17.5
2018-09-05T06:04:44.064Z,17.6
2018-09-05T06:05:33.877Z,17.5
2018-09-05T06:06:25.873Z,17.6
2018-09-05T06:07:14.342Z,17.9
2018-09-05T06:08:04.353Z,18.1
2018-09-05T06:08:54.431Z,18.3
2018-09-05T06:09:44.524Z,18.1
2018-09-05T06:10:34.284Z,18
2018-09-05T06:11:24.640Z,17.9
2018-09-05T06:12:15.212Z,17.9
2018-09-05T06:13:04.742Z,18
2018-09-05T06:13:54.829Z,18
2018-09-05T06:14:44.299Z,17.9
2018-09-05T06:15:35.393Z,17.9
2018-09-05T06:16:24.728Z,18
2018-09-05T06:17:15.287Z,18.3
2018-09-05T06:18:05.772Z,18.4
2018-09-05T06:18:55.222Z,18.3
2018-09-05T06:19:45.274Z,18.2
2018-09-05T06:20:35.068Z,18.4
2018-09-05T06:21:25.119Z,18.4
2018-09-05T06:22:15.741Z,18.5
2018-09-05T06:23:05.538Z,18.4
2018-09-05T06:23:55.577Z,18.5
2018-09-05T06:24:45.393Z,18.5
2018-09-05T06:25:35.681Z,18.5
2018-09-05T06:26:25.793Z,18.5
2018-09-05T06:27:16.013Z,18.8
2018-09-05T06:28:05.927Z,18.9
2018-09-05T06:28:55.699Z,18.9
2018-09-05T06:29:45.765Z,19.1
2018-09-05T06:30:37.956Z,19.3
2018-09-05T06:31:26.417Z,19.1
2018-09-05T06:32:15.971Z,19.1
2018-09-05T06:33:06.315Z,19.4
2018-09-05T06:33:56.366Z,19.2
2018-09-05T06:34:46.143Z,18.9
2018-09-05T06:35:36.706Z,18.9
2018-09-05T06:36:26.548Z,19.1
2018-09-05T06:37:16.613Z,19.2
2018-09-05T06:38:06.093Z,19.1
2018-09-05T06:38:56.469Z,19.1
2018-09-05T06:39:46.816Z,19.4
2018-09-05T06:40:36.605Z,19.4
2018-09-05T06:41:26.957Z,19.4
2018-09-05T06:42:16.458Z,19.3
2018-09-05T06:43:06.822Z,19.2
2018-09-05T06:43:56.861Z,19.3
2018-09-05T06:44:47.205Z,19.4
2018-09-05T06:45:37.308Z,19.5
2018-09-05T06:46:27.097Z,19.6
2018-09-05T06:47:16.546Z,19.3
2018-09-05T06:48:07.228Z,19.2
2018-09-05T06:48:57.269Z,19.1
2018-09-05T06:49:47.580Z,19.4
2018-09-05T06:50:37.400Z,19.6
2018-09-05T06:51:28.483Z,19.6
2018-09-05T06:52:17.842Z,19.3
2018-09-05T06:53:07.855Z,19.3
2018-09-05T06:53:57.912Z,19.6
2018-09-05T06:54:48.032Z,19.9
2018-09-05T06:55:37.757Z,20.1
2018-09-05T06:56:28.091Z,19.9
2018-09-05T06:57:18.171Z,19.8
2018-09-05T06:58:08.745Z,19.6
2018-09-05T06:58:58.324Z,19.7
2018-09-05T06:59:48.088Z,19.9
2018-09-05T07:00:38.422Z,19.7
2018-09-05T07:01:28.229Z,19.3
2018-09-05T07:02:18.554Z,19.3
2018-09-05T07:03:08.342Z,19.8
2018-09-05T07:03:59.515Z,19.9
2018-09-05T07:04:48.749Z,20.1
2018-09-05T07:05:38.808Z,20.2
2018-09-05T07:06:28.896Z,19.9
2018-09-05T07:07:18.659Z,20
2018-09-05T07:08:09.012Z,19.9
2018-09-05T07:08:59.334Z,19.6
2018-09-05T07:09:49.227Z,19.4
2018-09-05T07:10:38.338Z,19.4
2018-09-05T07:11:28.713Z,19.4
2018-09-05T07:12:19.333Z,19.6
2018-09-05T07:13:09.410Z,19.6
2018-09-05T07:13:59.059Z,19.8
2018-09-05T07:14:49.244Z,19.8
2018-09-05T07:15:39.114Z,19.8
2018-09-05T07:16:29.103Z,19.6
2018-09-05T07:17:19.739Z,19.8
2018-09-05T07:18:09.508Z,19.6
2018-09-05T07:18:59.553Z,19.8
2018-09-05T07:19:49.633Z,19.9
2018-09-05T07:20:39.682Z,19.9
2018-09-05T07:21:31.234Z,19.7
2018-09-05T07:22:19.835Z,19.6
2018-09-05T07:23:10.235Z,19.6
2018-09-05T07:24:00.248Z,19.5
2018-09-05T07:24:50.563Z,19.6
2018-09-05T07:25:40.366Z,19.9
2018-09-05T07:26:30.143Z,20
2018-09-05T07:27:20.212Z,19.9
2018-09-05T07:28:10.534Z,19.8
2018-09-05T07:29:00.645Z,19.9
2018-09-05T07:29:49.864Z,19.9
2018-09-05T07:30:40.851Z,20.3
2018-09-05T07:31:30.824Z,20.1
2018-09-05T07:32:20.889Z,19.9
2018-09-05T07:33:10.959Z,20.3
2018-09-05T07:34:00.738Z,20.1
2018-09-05T07:34:51.116Z,20.1
2018-09-05T07:35:41.454Z,20.3
2018-09-05T07:36:31.236Z,20.2
2018-09-05T07:37:20.792Z,20.1
2018-09-05T07:38:11.328Z,20.1
2018-09-05T07:39:01.114Z,20.4
2018-09-05T07:39:51.717Z,20.3
2018-09-05T07:40:41.518Z,20.2
2018-09-05T07:41:31.586Z,20.3
2018-09-05T07:42:21.655Z,20.3
2018-09-05T09:14:59.868Z,23.3
2018-09-05T09:15:49.396Z,23.1
2018-09-05T09:16:39.735Z,23.4
2018-09-05T09:17:29.797Z,23.2
2018-09-05T09:18:19.885Z,23.6
2018-09-05T09:19:10.212Z,24.3
2018-09-05T09:19:59.945Z,24
2018-09-05T09:20:50.588Z,23.8
2018-09-05T09:21:40.105Z,23.7
2018-09-05T09:22:30.449Z,23.4
2018-09-05T09:23:20.542Z,23.5
2018-09-05T09:24:10.319Z,23.8
2018-09-05T09:25:00.662Z,23.9
2018-09-05T09:25:50.407Z,24.2
2018-09-05T09:26:40.237Z,24.7
2018-09-05T09:27:30.852Z,25.3
2018-09-05T09:28:20.807Z,25.2
2018-09-05T09:29:10.417Z,25.2
2018-09-05T09:30:01.032Z,24.9
2018-09-05T09:30:50.832Z,24.9
2018-09-05T09:31:41.159Z,25.3
2018-09-05T09:32:30.987Z,25.5
2018-09-05T09:33:21.289Z,25.3
2018-09-05T09:34:10.812Z,24.9
2018-09-05T09:35:01.173Z,23.9
2018-09-05T09:35:51.215Z,23.5
2018-09-05T09:36:41.307Z,23.8
2018-09-05T09:37:31.095Z,23.7
2018-09-05T09:38:21.410Z,24
2018-09-05T09:39:11.761Z,23.9
2018-09-05T09:40:01.571Z,23.4
2018-09-05T09:40:51.908Z,23.5
2018-09-05T09:41:41.681Z,23.8
2018-09-05T09:42:31.441Z,23.9
2018-09-05T09:43:22.081Z,24.1
2018-09-05T09:44:12.155Z,23.9
2018-09-05T09:45:01.946Z,24.2
2018-09-05T09:45:52.310Z,24.1
2018-09-05T09:46:42.292Z,23.9
2018-09-05T09:47:32.139Z,24.6
2018-09-05T09:48:22.211Z,24.9
2018-09-05T09:49:12.546Z,24.5
2018-09-05T09:50:02.605Z,24.1
2018-09-05T09:50:52.107Z,24
2018-09-05T09:51:42.153Z,23.8
2018-09-05T09:52:32.563Z,23.7
2018-09-05T09:53:22.329Z,23.8
2018-09-05T09:54:12.068Z,24
2018-09-05T09:55:02.438Z,24.2
2018-09-05T09:55:52.597Z,24.3
2018-09-05T09:56:43.440Z,24.4
2018-09-05T09:57:32.912Z,24
2018-09-05T09:58:23.002Z,24.1
2018-09-05T09:59:13.166Z,24.1
2018-09-05T10:00:03.390Z,23.8
2018-09-05T10:00:52.909Z,23.7
2018-09-05T10:01:43.502Z,23.7
2018-09-05T10:02:33.071Z,23.5
2018-09-05T10:03:24.157Z,23.6
2018-09-05T10:04:13.713Z,23.6
2018-09-05T10:05:03.498Z,23.8
2018-09-05T10:05:53.286Z,23.9
2018-09-05T10:06:44.146Z,24.1
2018-09-05T10:07:34.093Z,24.4
2018-09-05T10:08:24.057Z,24.1
2018-09-05T10:09:14.102Z,24.5
2018-09-05T10:10:05.172Z,24.1
2018-09-05T10:10:54.208Z,23.9
2018-09-05T10:11:44.012Z,23.9
2018-09-05T10:12:34.355Z,24.3
2018-09-05T10:13:24.160Z,24.3
2018-09-05T10:14:14.514Z,24.2
2018-09-05T10:15:04.481Z,23.9
2018-09-05T10:15:54.616Z,23.7
2018-09-05T10:16:44.899Z,23.8
2018-09-05T10:17:34.795Z,24.1
2018-09-05T10:18:24.834Z,24.4
2018-09-05T10:19:14.619Z,24.3
2018-09-05T10:20:05.030Z,24.4
2018-09-05T10:20:55.365Z,24.6
2018-09-05T10:21:44.792Z,24.4
2018-09-05T10:22:35.213Z,24
2018-09-05T10:23:24.381Z,24.2
2018-09-05T10:24:15.280Z,24.4
2018-09-05T10:25:05.064Z,24.8
2018-09-05T10:25:55.468Z,24.8
2018-09-05T10:26:45.201Z,24.6
2018-09-05T10:27:35.570Z,24.7
2018-09-05T10:28:25.021Z,24.8
2018-09-05T10:29:15.381Z,25.2
2018-09-05T10:30:05.432Z,24.8
2018-09-05T10:30:55.788Z,24.7
2018-09-05T10:31:46.050Z,25
2018-09-05T10:32:35.631Z,24.7
2018-09-05T10:33:25.754Z,24.8
2018-09-05T10:34:15.475Z,24.8
2018-09-05T10:35:06.109Z,25.4
2018-09-05T10:35:55.908Z,25.1
2018-09-05T10:36:45.956Z,24.8
2018-09-05T10:37:36.056Z,24.8
2018-09-05T10:38:26.170Z,25.4
2018-09-05T10:39:16.247Z,25.1
2018-09-05T10:40:06.207Z,24.8
2018-09-05T10:40:56.008Z,24.4
2018-09-05T10:41:46.045Z,24.8
2018-09-05T10:42:36.979Z,24.5
2018-09-05T10:43:26.724Z,24.8
2018-09-05T10:44:17.316Z,25.2
2018-09-05T10:45:06.315Z,25.8
2018-09-05T10:45:56.947Z,25.8
2018-09-05T10:46:46.752Z,26
2018-09-05T10:47:36.805Z,25.9
2018-09-05T10:48:27.144Z,25.6
2018-09-05T10:49:16.932Z,25.3
2018-09-05T10:50:06.986Z,25.1
2018-09-05T10:50:57.345Z,25.2
2018-09-05T10:51:47.430Z,25.6
2018-09-05T10:52:36.894Z,25.7
2018-09-05T10:53:27.559Z,25.5
2018-09-05T10:54:17.611Z,25.4
2018-09-05T10:55:07.392Z,25.7
2018-09-05T10:55:57.747Z,26
2018-09-05T10:56:46.954Z,26.2
2018-09-05T10:57:38.101Z,25.8
2018-09-05T10:58:27.944Z,25.4
2018-09-05T10:59:17.426Z,25.4
2018-09-05T11:00:08.094Z,25.9
2018-09-05T11:00:57.836Z,26.2
2018-09-05T11:01:48.185Z,26.4
2018-09-05T11:02:37.963Z,26.1
2018-09-05T11:03:28.288Z,25.7
2018-09-05T11:04:18.568Z,25.6
2018-09-05T11:05:08.157Z,25.7
2018-09-05T11:05:58.251Z,25.8
2018-09-05T11:06:48.314Z,26.1
2018-09-05T11:07:38.134Z,26.1
2018-09-05T11:08:28.956Z,26.2
2018-09-05T11:09:18.815Z,26.4
2018-09-05T11:10:08.292Z,26
2018-09-05T11:10:59.553Z,26
2018-09-05T11:11:48.981Z,26.1
2018-09-05T11:12:38.751Z,26.3
2018-09-05T11:13:28.821Z,26.1
2018-09-05T11:14:19.178Z,25.9
2018-09-05T11:15:08.960Z,25.9
2018-09-05T11:15:59.016Z,25.9
2018-09-05T11:16:49.073Z,26.2
2018-09-05T11:17:39.430Z,26.6
2018-09-05T11:18:28.953Z,26.3
2018-09-05T11:19:19.265Z,26.9
2018-09-05T11:20:09.344Z,26.7
2018-09-05T11:20:59.426Z,26.4
2018-09-05T11:21:49.747Z,26.3
2018-09-05T11:22:39.546Z,26.4
2018-09-05T11:23:29.622Z,26.9
2018-09-05T11:24:19.914Z,27.6
2018-09-05T11:25:10.014Z,27.7
2018-09-05T11:26:00.075Z,27.2
2018-09-05T11:26:50.152Z,26.1
2018-09-05T11:27:40.341Z,26.3
2018-09-05T11:28:29.709Z,26.8
2018-09-05T11:29:20.094Z,26.8
2018-09-05T11:30:09.845Z,26.4
2018-09-05T11:31:00.464Z,26.5
2018-09-05T11:31:49.977Z,27.1
2018-09-05T11:32:40.314Z,27.1
2018-09-05T11:33:30.369Z,26.7
2018-09-05T11:34:20.686Z,26.7
2018-09-05T11:35:10.517Z,26.5
2018-09-05T11:36:00.849Z,26.6
2018-09-05T11:36:50.848Z,27.2
2018-09-05T11:37:40.973Z,27.4
2018-09-05T11:38:31.039Z,27.1
2018-09-05T11:39:21.379Z,27.4
2018-09-05T11:40:10.628Z,27.7
2018-09-05T11:41:00.966Z,27
2018-09-05T11:41:50.745Z,27.1
2018-09-05T11:42:40.806Z,27.4
2018-09-05T11:43:31.168Z,27.3
2018-09-05T11:44:21.755Z,26.8
2018-09-05T11:45:11.545Z,27.1
2018-09-05T11:46:01.636Z,27.6
2018-09-05T11:46:51.413Z,27.4
2018-09-05T11:47:41.850Z,27.4
2018-09-05T11:48:31.857Z,27.5
2018-09-05T11:49:21.906Z,27.1
2018-09-05T11:50:11.957Z,26.8
2018-09-05T11:51:01.774Z,27.1
2018-09-05T11:51:51.865Z,27.5
2018-09-05T11:52:41.885Z,27.8
2018-09-05T11:53:32.215Z,27.5
2018-09-05T11:54:21.984Z,27.4
2018-09-05T11:55:12.394Z,27.1
2018-09-05T11:56:02.474Z,26.9
2018-09-05T11:56:52.202Z,26.9
2018-09-05T11:57:42.472Z,27.3
2018-09-05T11:58:32.368Z,27.7
2018-09-05T11:59:22.463Z,27.9
2018-09-05T12:00:12.760Z,27.9
2018-09-05T12:01:02.869Z,27.9
2018-09-05T12:01:52.619Z,27.4
2018-09-05T12:02:42.709Z,27.3
2018-09-05T12:03:33.014Z,27.4
2018-09-05T12:04:22.792Z,27.7
2018-09-05T12:05:13.122Z,28.1
2018-09-05T12:06:03.487Z,27.9
2018-09-05T12:06:53.281Z,28
2018-09-05T12:07:43.331Z,28
2018-09-05T12:08:33.140Z,27.8
2018-09-05T12:11:53.707Z,27.6
2018-09-05T12:12:43.424Z,27.3
2018-09-05T12:13:33.798Z,26.9
2018-09-05T12:14:23.843Z,26.9
2018-09-05T12:15:13.901Z,27.3
2018-09-05T12:16:03.948Z,27.4
2018-09-05T12:16:54.051Z,27.3
2018-09-05T12:17:44.101Z,27.3
2018-09-05T12:18:34.404Z,26.8
2018-09-05T12:19:23.978Z,27.2
2018-09-05T12:20:14.603Z,27.4
2018-09-05T12:21:54.206Z,28.1
2018-09-05T12:22:44.525Z,27.6
2018-09-05T12:23:34.517Z,27.4
2018-09-05T12:24:24.368Z,27.9
2018-09-05T12:25:14.705Z,27.9
2018-09-05T12:26:04.490Z,28.2
2018-09-05T12:26:54.850Z,28.2
2018-09-05T12:27:44.058Z,28.4
2018-09-05T12:28:34.960Z,27.1
2018-09-05T12:29:25.334Z,26.8
2018-09-05T12:30:14.523Z,26.9
2018-09-05T12:31:04.582Z,26.8
2018-09-05T12:31:54.927Z,26.9
2018-09-05T12:32:45.290Z,27.4
2018-09-05T12:33:35.050Z,27.5
2018-09-05T12:34:25.127Z,27.7
2018-09-05T12:36:05.239Z,27.6
2018-09-05T12:37:45.669Z,27.6
2018-09-05T12:38:35.729Z,27.1
2018-09-05T12:39:25.819Z,26.9
2018-09-05T12:40:15.587Z,27.2
2018-09-05T12:41:05.921Z,27.3
2018-09-05T12:41:55.992Z,26.9
2018-09-05T12:42:45.782Z,27.1
2018-09-05T12:43:35.566Z,27.1
2018-09-05T12:44:26.204Z,27
2018-09-05T12:45:16.252Z,26.9
2018-09-05T12:46:06.029Z,27
2018-09-05T12:46:56.107Z,27.3
2018-09-05T12:47:46.484Z,27.4
2018-09-05T12:48:35.955Z,27.3
2018-09-05T12:49:26.028Z,27.7
2018-09-05T12:50:16.381Z,28
2018-09-05T12:51:56.769Z,27.6
2018-09-05T12:52:46.539Z,27.4
2018-09-05T12:53:36.348Z,27.4
2018-09-05T12:54:26.705Z,27.4
2018-09-05T12:55:16.750Z,26.9
2018-09-05T12:56:07.122Z,27.1
2018-09-05T12:56:57.211Z,26.8
2018-09-05T12:57:46.940Z,26.4
2018-09-05T12:58:37.015Z,26.6
2018-09-05T12:59:28.161Z,26.9
2018-09-05T13:00:16.581Z,26.8
2018-09-05T13:01:07.507Z,26.4
2018-09-05T13:01:57.540Z,26.6
2018-09-05T13:02:47.611Z,26.1
2018-09-05T13:03:37.643Z,26.2
2018-09-05T13:04:27.792Z,26.3
2018-09-05T13:05:17.263Z,26.5
2018-09-05T13:06:07.927Z,26.8
2018-09-05T13:06:58.004Z,26.8
2018-09-05T13:07:47.761Z,26.7
2018-09-05T13:08:38.097Z,26.9
2018-09-05T13:09:28.194Z,26.8
2018-09-05T13:10:18.215Z,27.1
2018-09-05T13:11:58.378Z,28
2018-09-05T13:12:48.257Z,27.4
2018-09-05T13:13:38.795Z,27.4
2018-09-05T13:14:27.411Z,26.8
2018-09-05T13:15:18.313Z,26.9
2018-09-05T13:16:08.946Z,26.8
2018-09-05T13:16:58.737Z,26.9
2018-09-05T13:17:48.234Z,26.9
2018-09-05T13:18:38.539Z,27
2018-09-05T13:19:28.359Z,27.4
2018-09-05T13:20:18.976Z,26.7
2018-09-05T13:21:08.776Z,26.4
2018-09-05T13:21:58.566Z,26.7
2018-09-05T13:22:48.947Z,27.1
2018-09-05T13:23:38.981Z,27.4